sensor_id;sensor_type;location;lat;lon;timestamp;P1;durP1;ratioP1;P2;durP2;ratioP2
18196;SDS011;9224;52.422;13.024;2022-07-21T00:01:33;7.90;;;6.00;;
18196;SDS011;9224;52.422;13.024;2022-07-21T00:04:00;9.57;;;6.23;;
18196;SDS011;9224;52.422;13.024;2022-07-21T00:06:27;6.20;;;5.60;;
18196;SDS011;9224;52.422;13.024;2022-07-21T00:08:55;6.37;;;5.70;;
18196;SDS011;9224;52.422;13.024;2022-07-21T00:11:21;6.50;;;5.60;;
18196;SDS011;9224;52.422;13.024;2022-07-21T00:13:48;6.33;;;5.73;;
18196;SDS011;9224;52.422;13.024;2022-07-21T00:16:15;7.20;;;5.40;;
18196;SDS011;9224;52.422;13.024;2022-07-21T00:18:41;6.17;;;5.47;;
18196;SDS011;9224;52.422;13.024;2022-07-21T00:21:08;5.57;;;5.07;;
18196;SDS011;9224;52.422;13.024;2022-07-21T00:23:34;6.63;;;5.37;;
18196;SDS011;9224;52.422;13.024;2022-07-21T00:26:02;7.00;;;5.47;;
18196;SDS011;9224;52.422;13.024;2022-07-21T00:28:28;8.43;;;5.53;;
18196;SDS011;9224;52.422;13.024;2022-07-21T00:30:55;7.43;;;5.63;;
18196;SDS011;9224;52.422;13.024;2022-07-21T00:33:21;10.03;;;5.67;;
18196;SDS011;9224;52.422;13.024;2022-07-21T00:35:48;8.37;;;5.67;;
18196;SDS011;9224;52.422;13.024;2022-07-21T00:38:14;6.70;;;5.60;;
18196;SDS011;9224;52.422;13.024;2022-07-21T00:40:41;6.13;;;5.40;;
18196;SDS011;9224;52.422;13.024;2022-07-21T00:43:09;6.43;;;5.47;;
18196;SDS011;9224;52.422;13.024;2022-07-21T00:45:35;9.50;;;5.87;;
18196;SDS011;9224;52.422;13.024;2022-07-21T00:48:02;6.30;;;5.60;;
18196;SDS011;9224;52.422;13.024;2022-07-21T00:50:29;7.53;;;5.90;;
18196;SDS011;9224;52.422;13.024;2022-07-21T00:52:58;9.63;;;5.83;;
18196;SDS011;9224;52.422;13.024;2022-07-21T00:55:24;7.27;;;6.00;;
18196;SDS011;9224;52.422;13.024;2022-07-21T00:57:51;8.47;;;5.70;;
18196;SDS011;9224;52.422;13.024;2022-07-21T01:00:20;7.87;;;5.30;;
18196;SDS011;9224;52.422;13.024;2022-07-21T01:02:47;5.60;;;5.00;;
18196;SDS011;9224;52.422;13.024;2022-07-21T01:05:14;7.10;;;5.37;;
18196;SDS011;9224;52.422;13.024;2022-07-21T01:07:41;5.73;;;5.20;;
18196;SDS011;9224;52.422;13.024;2022-07-21T01:10:09;6.43;;;5.40;;
18196;SDS011;9224;52.422;13.024;2022-07-21T01:12:36;7.07;;;5.97;;
18196;SDS011;9224;52.422;13.024;2022-07-21T01:15:03;8.00;;;5.93;;
18196;SDS011;9224;52.422;13.024;2022-07-21T01:17:32;7.53;;;5.50;;
18196;SDS011;9224;52.422;13.024;2022-07-21T01:19:59;6.67;;;5.53;;
18196;SDS011;9224;52.422;13.024;2022-07-21T01:22:30;8.27;;;5.93;;
18196;SDS011;9224;52.422;13.024;2022-07-21T01:24:57;6.57;;;5.90;;
18196;SDS011;9224;52.422;13.024;2022-07-21T01:27:24;8.17;;;5.83;;
18196;SDS011;9224;52.422;13.024;2022-07-21T01:29:51;8.40;;;6.00;;
18196;SDS011;9224;52.422;13.024;2022-07-21T01:32:17;6.90;;;5.97;;
18196;SDS011;9224;52.422;13.024;2022-07-21T01:34:44;6.90;;;5.43;;
18196;SDS011;9224;52.422;13.024;2022-07-21T01:37:11;6.67;;;5.20;;
18196;SDS011;9224;52.422;13.024;2022-07-21T01:39:39;6.60;;;5.67;;
18196;SDS011;9224;52.422;13.024;2022-07-21T01:42:23;7.83;;;5.47;;
18196;SDS011;9224;52.422;13.024;2022-07-21T01:44:49;6.70;;;5.23;;
18196;SDS011;9224;52.422;13.024;2022-07-21T01:47:16;6.07;;;5.50;;
18196;SDS011;9224;52.422;13.024;2022-07-21T01:49:45;7.83;;;5.07;;
18196;SDS011;9224;52.422;13.024;2022-07-21T01:52:11;7.70;;;5.27;;
18196;SDS011;9224;52.422;13.024;2022-07-21T01:54:39;7.10;;;5.20;;
18196;SDS011;9224;52.422;13.024;2022-07-21T01:57:06;6.80;;;5.80;;
18196;SDS011;9224;52.422;13.024;2022-07-21T01:59:32;7.50;;;6.17;;
18196;SDS011;9224;52.422;13.024;2022-07-21T02:01:59;8.30;;;5.97;;
18196;SDS011;9224;52.422;13.024;2022-07-21T02:04:25;6.03;;;5.20;;
18196;SDS011;9224;52.422;13.024;2022-07-21T02:06:52;6.20;;;5.33;;
18196;SDS011;9224;52.422;13.024;2022-07-21T02:09:37;6.83;;;5.60;;
18196;SDS011;9224;52.422;13.024;2022-07-21T02:12:23;7.67;;;5.43;;
18196;SDS011;9224;52.422;13.024;2022-07-21T02:15:09;6.83;;;5.33;;
18196;SDS011;9224;52.422;13.024;2022-07-21T02:17:36;6.60;;;6.00;;
18196;SDS011;9224;52.422;13.024;2022-07-21T02:20:03;6.03;;;5.43;;
18196;SDS011;9224;52.422;13.024;2022-07-21T02:22:30;6.13;;;5.53;;
18196;SDS011;9224;52.422;13.024;2022-07-21T02:24:57;9.20;;;5.77;;
18196;SDS011;9224;52.422;13.024;2022-07-21T02:27:25;6.90;;;5.37;;
18196;SDS011;9224;52.422;13.024;2022-07-21T02:29:51;6.03;;;5.17;;
18196;SDS011;9224;52.422;13.024;2022-07-21T02:32:18;7.90;;;6.07;;
18196;SDS011;9224;52.422;13.024;2022-07-21T02:34:45;6.17;;;5.60;;
18196;SDS011;9224;52.422;13.024;2022-07-21T02:37:11;5.77;;;5.23;;
18196;SDS011;9224;52.422;13.024;2022-07-21T02:39:38;7.83;;;5.80;;
18196;SDS011;9224;52.422;13.024;2022-07-21T02:42:05;9.73;;;6.70;;
18196;SDS011;9224;52.422;13.024;2022-07-21T02:44:33;6.10;;;5.60;;
18196;SDS011;9224;52.422;13.024;2022-07-21T02:47:01;6.73;;;5.93;;
18196;SDS011;9224;52.422;13.024;2022-07-21T02:49:27;7.53;;;5.40;;
18196;SDS011;9224;52.422;13.024;2022-07-21T02:51:54;10.83;;;5.80;;
18196;SDS011;9224;52.422;13.024;2022-07-21T02:54:20;7.40;;;5.77;;
18196;SDS011;9224;52.422;13.024;2022-07-21T02:56:47;8.10;;;5.80;;
18196;SDS011;9224;52.422;13.024;2022-07-21T02:59:13;7.73;;;5.30;;
18196;SDS011;9224;52.422;13.024;2022-07-21T03:01:41;10.50;;;5.77;;
18196;SDS011;9224;52.422;13.024;2022-07-21T03:04:08;7.83;;;5.87;;
18196;SDS011;9224;52.422;13.024;2022-07-21T03:06:34;7.20;;;5.70;;
18196;SDS011;9224;52.422;13.024;2022-07-21T03:09:02;5.87;;;5.37;;
18196;SDS011;9224;52.422;13.024;2022-07-21T03:11:29;7.47;;;5.67;;
18196;SDS011;9224;52.422;13.024;2022-07-21T03:13:55;10.27;;;6.17;;
18196;SDS011;9224;52.422;13.024;2022-07-21T03:16:22;6.63;;;5.67;;
18196;SDS011;9224;52.422;13.024;2022-07-21T03:18:49;5.73;;;5.17;;
18196;SDS011;9224;52.422;13.024;2022-07-21T03:21:16;6.83;;;5.60;;
18196;SDS011;9224;52.422;13.024;2022-07-21T03:23:43;6.60;;;5.90;;
18196;SDS011;9224;52.422;13.024;2022-07-21T03:26:10;6.43;;;5.07;;
18196;SDS011;9224;52.422;13.024;2022-07-21T03:28:37;5.57;;;5.03;;
18196;SDS011;9224;52.422;13.024;2022-07-21T03:31:04;9.93;;;5.40;;
18196;SDS011;9224;52.422;13.024;2022-07-21T03:33:31;7.40;;;5.10;;
18196;SDS011;9224;52.422;13.024;2022-07-21T03:35:59;9.37;;;5.57;;
18196;SDS011;9224;52.422;13.024;2022-07-21T03:38:26;5.40;;;4.80;;
18196;SDS011;9224;52.422;13.024;2022-07-21T03:40:53;6.30;;;5.17;;
18196;SDS011;9224;52.422;13.024;2022-07-21T03:43:19;6.70;;;4.87;;
18196;SDS011;9224;52.422;13.024;2022-07-21T03:45:46;6.03;;;4.60;;
18196;SDS011;9224;52.422;13.024;2022-07-21T03:48:12;8.87;;;4.80;;
18196;SDS011;9224;52.422;13.024;2022-07-21T03:50:40;7.17;;;4.73;;
18196;SDS011;9224;52.422;13.024;2022-07-21T03:53:08;5.87;;;5.27;;
18196;SDS011;9224;52.422;13.024;2022-07-21T03:55:35;8.90;;;4.80;;
18196;SDS011;9224;52.422;13.024;2022-07-21T03:58:03;5.73;;;4.90;;
18196;SDS011;9224;52.422;13.024;2022-07-21T04:00:31;9.60;;;6.67;;
18196;SDS011;9224;52.422;13.024;2022-07-21T04:02:58;10.50;;;8.30;;
18196;SDS011;9224;52.422;13.024;2022-07-21T04:05:25;9.43;;;8.50;;
18196;SDS011;9224;52.422;13.024;2022-07-21T04:07:53;12.37;;;9.50;;
18196;SDS011;9224;52.422;13.024;2022-07-21T04:10:21;13.30;;;10.13;;
18196;SDS011;9224;52.422;13.024;2022-07-21T04:12:50;13.20;;;11.60;;
18196;SDS011;9224;52.422;13.024;2022-07-21T04:15:17;18.13;;;11.80;;
18196;SDS011;9224;52.422;13.024;2022-07-21T04:17:43;16.10;;;12.67;;
18196;SDS011;9224;52.422;13.024;2022-07-21T04:20:10;13.90;;;12.50;;
18196;SDS011;9224;52.422;13.024;2022-07-21T04:22:38;15.13;;;13.03;;
18196;SDS011;9224;52.422;13.024;2022-07-21T04:25:06;15.40;;;13.67;;
18196;SDS011;9224;52.422;13.024;2022-07-21T04:27:34;17.50;;;14.40;;
18196;SDS011;9224;52.422;13.024;2022-07-21T04:30:02;15.97;;;14.47;;
18196;SDS011;9224;52.422;13.024;2022-07-21T04:32:30;18.83;;;14.83;;
18196;SDS011;9224;52.422;13.024;2022-07-21T04:34:56;15.87;;;14.33;;
18196;SDS011;9224;52.422;13.024;2022-07-21T04:37:23;15.80;;;14.23;;
18196;SDS011;9224;52.422;13.024;2022-07-21T04:39:49;16.50;;;13.63;;
18196;SDS011;9224;52.422;13.024;2022-07-21T04:42:16;20.70;;;15.03;;
18196;SDS011;9224;52.422;13.024;2022-07-21T04:44:44;15.67;;;14.17;;
18196;SDS011;9224;52.422;13.024;2022-07-21T04:47:10;16.57;;;14.03;;
18196;SDS011;9224;52.422;13.024;2022-07-21T04:49:36;16.10;;;14.40;;
18196;SDS011;9224;52.422;13.024;2022-07-21T04:52:03;17.83;;;15.20;;
18196;SDS011;9224;52.422;13.024;2022-07-21T04:54:30;16.57;;;14.33;;
18196;SDS011;9224;52.422;13.024;2022-07-21T04:56:57;17.33;;;15.50;;
18196;SDS011;9224;52.422;13.024;2022-07-21T04:59:24;16.23;;;14.70;;
18196;SDS011;9224;52.422;13.024;2022-07-21T05:01:52;17.87;;;14.97;;
18196;SDS011;9224;52.422;13.024;2022-07-21T05:04:18;16.60;;;14.90;;
18196;SDS011;9224;52.422;13.024;2022-07-21T05:06:45;16.37;;;14.23;;
18196;SDS011;9224;52.422;13.024;2022-07-21T05:09:11;18.00;;;14.93;;
18196;SDS011;9224;52.422;13.024;2022-07-21T05:11:38;15.57;;;14.13;;
18196;SDS011;9224;52.422;13.024;2022-07-21T05:14:04;16.77;;;14.10;;
18196;SDS011;9224;52.422;13.024;2022-07-21T05:16:31;17.80;;;14.20;;
18196;SDS011;9224;52.422;13.024;2022-07-21T05:18:59;15.80;;;14.13;;
18196;SDS011;9224;52.422;13.024;2022-07-21T05:21:25;16.10;;;14.40;;
18196;SDS011;9224;52.422;13.024;2022-07-21T05:23:52;16.73;;;13.60;;
18196;SDS011;9224;52.422;13.024;2022-07-21T05:26:18;15.43;;;13.90;;
18196;SDS011;9224;52.422;13.024;2022-07-21T05:28:45;16.37;;;14.67;;
18196;SDS011;9224;52.422;13.024;2022-07-21T05:31:11;15.80;;;14.10;;
18196;SDS011;9224;52.422;13.024;2022-07-21T05:33:38;15.00;;;13.03;;
18196;SDS011;9224;52.422;13.024;2022-07-21T05:36:06;15.23;;;13.63;;
18196;SDS011;9224;52.422;13.024;2022-07-21T05:38:33;15.73;;;13.87;;
18196;SDS011;9224;52.422;13.024;2022-07-21T05:40:59;15.23;;;13.63;;
18196;SDS011;9224;52.422;13.024;2022-07-21T05:43:28;14.73;;;13.13;;
18196;SDS011;9224;52.422;13.024;2022-07-21T05:45:54;16.63;;;13.93;;
18196;SDS011;9224;52.422;13.024;2022-07-21T05:48:21;15.13;;;13.65;;
18196;SDS011;9224;52.422;13.024;2022-07-21T05:50:47;15.87;;;12.90;;
18196;SDS011;9224;52.422;13.024;2022-07-21T05:53:15;14.77;;;13.30;;
18196;SDS011;9224;52.422;13.024;2022-07-21T05:55:42;18.67;;;12.20;;
18196;SDS011;9224;52.422;13.024;2022-07-21T05:58:08;13.40;;;12.10;;
18196;SDS011;9224;52.422;13.024;2022-07-21T06:00:35;16.40;;;12.50;;
18196;SDS011;9224;52.422;13.024;2022-07-21T06:03:02;14.20;;;12.83;;
18196;SDS011;9224;52.422;13.024;2022-07-21T06:05:28;13.57;;;12.10;;
18196;SDS011;9224;52.422;13.024;2022-07-21T06:07:55;13.57;;;11.87;;
18196;SDS011;9224;52.422;13.024;2022-07-21T06:10:23;13.77;;;12.47;;
18196;SDS011;9224;52.422;13.024;2022-07-21T06:12:49;14.40;;;12.37;;
18196;SDS011;9224;52.422;13.024;2022-07-21T06:15:16;12.83;;;11.53;;
18196;SDS011;9224;52.422;13.024;2022-07-21T06:17:43;13.60;;;11.57;;
18196;SDS011;9224;52.422;13.024;2022-07-21T06:20:11;12.90;;;11.50;;
18196;SDS011;9224;52.422;13.024;2022-07-21T06:22:38;13.70;;;10.73;;
18196;SDS011;9224;52.422;13.024;2022-07-21T06:25:05;13.07;;;10.53;;
18196;SDS011;9224;52.422;13.024;2022-07-21T06:27:34;13.07;;;11.73;;
18196;SDS011;9224;52.422;13.024;2022-07-21T06:30:00;11.77;;;10.67;;
18196;SDS011;9224;52.422;13.024;2022-07-21T06:32:27;11.83;;;10.77;;
18196;SDS011;9224;52.422;13.024;2022-07-21T06:34:53;13.90;;;11.33;;
18196;SDS011;9224;52.422;13.024;2022-07-21T06:37:19;13.10;;;10.70;;
18196;SDS011;9224;52.422;13.024;2022-07-21T06:39:46;11.80;;;10.50;;
18196;SDS011;9224;52.422;13.024;2022-07-21T06:42:13;11.90;;;10.70;;
18196;SDS011;9224;52.422;13.024;2022-07-21T06:44:40;12.70;;;11.40;;
18196;SDS011;9224;52.422;13.024;2022-07-21T06:47:07;12.57;;;10.97;;
18196;SDS011;9224;52.422;13.024;2022-07-21T06:49:33;12.03;;;10.60;;
18196;SDS011;9224;52.422;13.024;2022-07-21T06:52:00;13.30;;;10.57;;
18196;SDS011;9224;52.422;13.024;2022-07-21T06:54:26;11.27;;;10.17;;
18196;SDS011;9224;52.422;13.024;2022-07-21T06:56:53;14.57;;;11.13;;
18196;SDS011;9224;52.422;13.024;2022-07-21T06:59:19;15.80;;;10.60;;
18196;SDS011;9224;52.422;13.024;2022-07-21T07:01:47;11.30;;;10.20;;
18196;SDS011;9224;52.422;13.024;2022-07-21T07:04:13;14.27;;;10.73;;
18196;SDS011;9224;52.422;13.024;2022-07-21T07:06:40;11.87;;;10.30;;
18196;SDS011;9224;52.422;13.024;2022-07-21T07:09:07;11.13;;;9.57;;
18196;SDS011;9224;52.422;13.024;2022-07-21T07:11:33;10.50;;;9.50;;
18196;SDS011;9224;52.422;13.024;2022-07-21T07:14:00;10.80;;;9.70;;
18196;SDS011;9224;52.422;13.024;2022-07-21T07:16:26;10.87;;;9.77;;
18196;SDS011;9224;52.422;13.024;2022-07-21T07:18:54;11.63;;;10.47;;
18196;SDS011;9224;52.422;13.024;2022-07-21T07:21:21;11.70;;;10.50;;
18196;SDS011;9224;52.422;13.024;2022-07-21T07:23:47;14.47;;;10.47;;
18196;SDS011;9224;52.422;13.024;2022-07-21T07:26:14;12.30;;;10.00;;
18196;SDS011;9224;52.422;13.024;2022-07-21T07:28:40;11.97;;;10.60;;
18196;SDS011;9224;52.422;13.024;2022-07-21T07:31:07;11.87;;;10.27;;
18196;SDS011;9224;52.422;13.024;2022-07-21T07:33:33;11.67;;;10.17;;
18196;SDS011;9224;52.422;13.024;2022-07-21T07:36:01;11.60;;;10.13;;
18196;SDS011;9224;52.422;13.024;2022-07-21T07:38:29;11.70;;;10.30;;
18196;SDS011;9224;52.422;13.024;2022-07-21T07:40:55;13.00;;;10.20;;
18196;SDS011;9224;52.422;13.024;2022-07-21T07:43:22;11.53;;;10.13;;
18196;SDS011;9224;52.422;13.024;2022-07-21T07:45:48;11.47;;;10.47;;
18196;SDS011;9224;52.422;13.024;2022-07-21T07:48:15;11.83;;;10.63;;
18196;SDS011;9224;52.422;13.024;2022-07-21T07:50:41;13.03;;;9.67;;
18196;SDS011;9224;52.422;13.024;2022-07-21T07:53:09;12.47;;;9.87;;
18196;SDS011;9224;52.422;13.024;2022-07-21T07:55:36;12.07;;;9.80;;
18196;SDS011;9224;52.422;13.024;2022-07-21T07:58:02;11.47;;;10.33;;
18196;SDS011;9224;52.422;13.024;2022-07-21T08:00:29;10.27;;;9.20;;
18196;SDS011;9224;52.422;13.024;2022-07-21T08:02:55;10.83;;;9.50;;
18196;SDS011;9224;52.422;13.024;2022-07-21T08:05:22;10.80;;;9.70;;
18196;SDS011;9224;52.422;13.024;2022-07-21T08:07:48;12.50;;;9.53;;
18196;SDS011;9224;52.422;13.024;2022-07-21T08:10:16;10.33;;;9.37;;
18196;SDS011;9224;52.422;13.024;2022-07-21T08:12:43;10.90;;;9.63;;
18196;SDS011;9224;52.422;13.024;2022-07-21T08:15:09;10.63;;;9.40;;
18196;SDS011;9224;52.422;13.024;2022-07-21T08:17:36;14.20;;;9.73;;
18196;SDS011;9224;52.422;13.024;2022-07-21T08:20:03;10.10;;;9.10;;
18196;SDS011;9224;52.422;13.024;2022-07-21T08:22:31;11.00;;;9.50;;
18196;SDS011;9224;52.422;13.024;2022-07-21T08:24:57;14.20;;;9.80;;
18196;SDS011;9224;52.422;13.024;2022-07-21T08:27:25;10.53;;;9.53;;
18196;SDS011;9224;52.422;13.024;2022-07-21T08:29:52;12.67;;;9.37;;
18196;SDS011;9224;52.422;13.024;2022-07-21T08:32:18;10.47;;;9.47;;
18196;SDS011;9224;52.422;13.024;2022-07-21T08:34:45;12.40;;;9.03;;
18196;SDS011;9224;52.422;13.024;2022-07-21T08:37:12;10.80;;;9.43;;
18196;SDS011;9224;52.422;13.024;2022-07-21T08:39:38;10.03;;;9.03;;
18196;SDS011;9224;52.422;13.024;2022-07-21T08:42:05;8.70;;;7.97;;
18196;SDS011;9224;52.422;13.024;2022-07-21T08:44:33;11.33;;;8.57;;
18196;SDS011;9224;52.422;13.024;2022-07-21T08:47:00;9.53;;;8.57;;
18196;SDS011;9224;52.422;13.024;2022-07-21T08:49:26;8.10;;;7.30;;
18196;SDS011;9224;52.422;13.024;2022-07-21T08:51:54;10.03;;;8.40;;
18196;SDS011;9224;52.422;13.024;2022-07-21T08:54:20;9.70;;;7.93;;
18196;SDS011;9224;52.422;13.024;2022-07-21T08:56:48;10.87;;;8.50;;
18196;SDS011;9224;52.422;13.024;2022-07-21T08:59:14;8.50;;;7.73;;
18196;SDS011;9224;52.422;13.024;2022-07-21T09:01:42;9.03;;;8.23;;
18196;SDS011;9224;52.422;13.024;2022-07-21T09:04:19;8.93;;;8.03;;
18196;SDS011;9224;52.422;13.024;2022-07-21T09:06:50;8.73;;;7.80;;
18196;SDS011;9224;52.422;13.024;2022-07-21T09:09:18;11.17;;;7.97;;
18196;SDS011;9224;52.422;13.024;2022-07-21T09:11:46;9.07;;;8.17;;
18196;SDS011;9224;52.422;13.024;2022-07-21T09:14:13;8.33;;;7.50;;
18196;SDS011;9224;52.422;13.024;2022-07-21T09:16:44;11.37;;;7.70;;
18196;SDS011;9224;52.422;13.024;2022-07-21T09:19:15;8.03;;;7.27;;
18196;SDS011;9224;52.422;13.024;2022-07-21T09:21:42;7.93;;;7.10;;
18196;SDS011;9224;52.422;13.024;2022-07-21T09:24:12;9.47;;;7.90;;
18196;SDS011;9224;52.422;13.024;2022-07-21T09:26:59;9.57;;;7.57;;
18196;SDS011;9224;52.422;13.024;2022-07-21T09:29:27;7.67;;;7.03;;
18196;SDS011;9224;52.422;13.024;2022-07-21T09:32:11;8.33;;;7.20;;
18196;SDS011;9224;52.422;13.024;2022-07-21T09:34:39;8.43;;;7.20;;
18196;SDS011;9224;52.422;13.024;2022-07-21T09:37:06;7.60;;;6.90;;
18196;SDS011;9224;52.422;13.024;2022-07-21T09:39:40;9.83;;;6.87;;
18196;SDS011;9224;52.422;13.024;2022-07-21T09:42:11;7.17;;;6.57;;
18196;SDS011;9224;52.422;13.024;2022-07-21T09:44:43;7.13;;;6.43;;
18196;SDS011;9224;52.422;13.024;2022-07-21T09:47:13;7.77;;;6.47;;
18196;SDS011;9224;52.422;13.024;2022-07-21T09:49:40;8.70;;;7.37;;
18196;SDS011;9224;52.422;13.024;2022-07-21T09:52:20;6.87;;;6.17;;
18196;SDS011;9224;52.422;13.024;2022-07-21T09:54:49;9.03;;;6.13;;
18196;SDS011;9224;52.422;13.024;2022-07-21T09:57:16;6.83;;;6.17;;
18196;SDS011;9224;52.422;13.024;2022-07-21T09:59:43;6.90;;;6.17;;
18196;SDS011;9224;52.422;13.024;2022-07-21T10:02:10;6.70;;;6.00;;
18196;SDS011;9224;52.422;13.024;2022-07-21T10:04:43;6.13;;;5.53;;
18196;SDS011;9224;52.422;13.024;2022-07-21T10:07:12;6.67;;;5.80;;
18196;SDS011;9224;52.422;13.024;2022-07-21T10:09:39;8.17;;;5.70;;
18196;SDS011;9224;52.422;13.024;2022-07-21T10:12:06;9.50;;;5.70;;
18196;SDS011;9224;52.422;13.024;2022-07-21T10:14:34;6.47;;;5.87;;
18196;SDS011;9224;52.422;13.024;2022-07-21T10:17:01;5.80;;;5.03;;
18196;SDS011;9224;52.422;13.024;2022-07-21T10:19:31;7.30;;;5.40;;
18196;SDS011;9224;52.422;13.024;2022-07-21T10:22:03;7.77;;;5.57;;
18196;SDS011;9224;52.422;13.024;2022-07-21T10:24:32;7.37;;;5.63;;
18196;SDS011;9224;52.422;13.024;2022-07-21T10:27:00;6.80;;;5.80;;
18196;SDS011;9224;52.422;13.024;2022-07-21T10:32:19;9.80;;;6.00;;
18196;SDS011;9224;52.422;13.024;2022-07-21T10:34:48;5.97;;;5.47;;
18196;SDS011;9224;52.422;13.024;2022-07-21T10:49:02;10.47;;;6.23;;
18196;SDS011;9224;52.422;13.024;2022-07-21T10:51:32;8.17;;;6.17;;
18196;SDS011;9224;52.422;13.024;2022-07-21T10:56:45;9.97;;;6.33;;
18196;SDS011;9224;52.422;13.024;2022-07-21T10:59:11;7.27;;;5.60;;
18196;SDS011;9224;52.422;13.024;2022-07-21T11:01:38;10.13;;;5.97;;
18196;SDS011;9224;52.422;13.024;2022-07-21T11:04:08;8.17;;;5.83;;
18196;SDS011;9224;52.422;13.024;2022-07-21T11:06:37;6.50;;;5.40;;
18196;SDS011;9224;52.422;13.024;2022-07-21T11:09:06;8.63;;;5.83;;
18196;SDS011;9224;52.422;13.024;2022-07-21T11:11:35;8.23;;;5.43;;
18196;SDS011;9224;52.422;13.024;2022-07-21T11:14:03;7.60;;;6.13;;
18196;SDS011;9224;52.422;13.024;2022-07-21T11:19:35;9.27;;;5.97;;
18196;SDS011;9224;52.422;13.024;2022-07-21T11:22:06;6.53;;;5.60;;
18196;SDS011;9224;52.422;13.024;2022-07-21T11:24:35;7.57;;;5.80;;
18196;SDS011;9224;52.422;13.024;2022-07-21T11:27:05;8.73;;;5.83;;
18196;SDS011;9224;52.422;13.024;2022-07-21T11:29:33;8.20;;;5.47;;
18196;SDS011;9224;52.422;13.024;2022-07-21T11:32:00;6.53;;;5.83;;
18196;SDS011;9224;52.422;13.024;2022-07-21T11:34:36;6.43;;;5.53;;
18196;SDS011;9224;52.422;13.024;2022-07-21T11:37:09;7.87;;;5.90;;
18196;SDS011;9224;52.422;13.024;2022-07-21T11:39:37;7.80;;;5.80;;
18196;SDS011;9224;52.422;13.024;2022-07-21T11:42:05;7.53;;;6.63;;
18196;SDS011;9224;52.422;13.024;2022-07-21T11:44:33;6.67;;;5.83;;
18196;SDS011;9224;52.422;13.024;2022-07-21T11:47:00;8.07;;;6.60;;
18196;SDS011;9224;52.422;13.024;2022-07-21T11:49:28;6.90;;;6.00;;
18196;SDS011;9224;52.422;13.024;2022-07-21T11:51:57;7.73;;;6.00;;
18196;SDS011;9224;52.422;13.024;2022-07-21T11:54:27;7.43;;;6.47;;
18196;SDS011;9224;52.422;13.024;2022-07-21T11:56:56;9.10;;;6.43;;
18196;SDS011;9224;52.422;13.024;2022-07-21T11:59:23;8.17;;;6.17;;
18196;SDS011;9224;52.422;13.024;2022-07-21T12:01:52;7.60;;;6.90;;
18196;SDS011;9224;52.422;13.024;2022-07-21T12:04:26;7.10;;;6.50;;
18196;SDS011;9224;52.422;13.024;2022-07-21T12:06:57;7.50;;;6.67;;
18196;SDS011;9224;52.422;13.024;2022-07-21T12:09:24;7.43;;;6.30;;
18196;SDS011;9224;52.422;13.024;2022-07-21T12:11:52;8.20;;;6.67;;
18196;SDS011;9224;52.422;13.024;2022-07-21T12:14:18;7.47;;;6.77;;
18196;SDS011;9224;52.422;13.024;2022-07-21T12:16:48;7.90;;;6.80;;
18196;SDS011;9224;52.422;13.024;2022-07-21T12:19:15;8.17;;;6.90;;
18196;SDS011;9224;52.422;13.024;2022-07-21T12:21:44;9.23;;;7.07;;
18196;SDS011;9224;52.422;13.024;2022-07-21T12:24:11;9.00;;;6.77;;
18196;SDS011;9224;52.422;13.024;2022-07-21T12:26:39;7.73;;;6.93;;
18196;SDS011;9224;52.422;13.024;2022-07-21T12:29:07;8.63;;;6.67;;
18196;SDS011;9224;52.422;13.024;2022-07-21T12:31:35;7.80;;;6.40;;
18196;SDS011;9224;52.422;13.024;2022-07-21T12:34:12;6.90;;;6.20;;
18196;SDS011;9224;52.422;13.024;2022-07-21T12:36:39;7.47;;;6.63;;
18196;SDS011;9224;52.422;13.024;2022-07-21T12:39:13;11.47;;;6.67;;
18196;SDS011;9224;52.422;13.024;2022-07-21T12:42:02;7.97;;;6.00;;
18196;SDS011;9224;52.422;13.024;2022-07-21T12:44:31;6.63;;;6.00;;
18196;SDS011;9224;52.422;13.024;2022-07-21T12:47:11;6.40;;;5.90;;
18196;SDS011;9224;52.422;13.024;2022-07-21T12:49:52;6.43;;;5.93;;
18196;SDS011;9224;52.422;13.024;2022-07-21T12:52:20;6.77;;;5.57;;
18196;SDS011;9224;52.422;13.024;2022-07-21T12:54:46;6.13;;;5.60;;
18196;SDS011;9224;52.422;13.024;2022-07-21T12:57:13;7.07;;;5.80;;
18196;SDS011;9224;52.422;13.024;2022-07-21T12:59:41;8.03;;;5.57;;
18196;SDS011;9224;52.422;13.024;2022-07-21T13:02:08;6.20;;;5.60;;
18196;SDS011;9224;52.422;13.024;2022-07-21T13:04:34;8.30;;;5.97;;
18196;SDS011;9224;52.422;13.024;2022-07-21T13:07:01;6.17;;;5.50;;
18196;SDS011;9224;52.422;13.024;2022-07-21T13:09:27;7.20;;;6.13;;
18196;SDS011;9224;52.422;13.024;2022-07-21T13:11:54;6.37;;;5.80;;
18196;SDS011;9224;52.422;13.024;2022-07-21T13:14:20;6.77;;;5.90;;
18196;SDS011;9224;52.422;13.024;2022-07-21T13:16:48;6.33;;;5.73;;
18196;SDS011;9224;52.422;13.024;2022-07-21T13:19:14;6.63;;;5.93;;
18196;SDS011;9224;52.422;13.024;2022-07-21T13:21:41;6.30;;;5.70;;
18196;SDS011;9224;52.422;13.024;2022-07-21T13:24:07;5.90;;;5.40;;
18196;SDS011;9224;52.422;13.024;2022-07-21T13:26:34;7.10;;;5.47;;
18196;SDS011;9224;52.422;13.024;2022-07-21T13:29:00;6.37;;;5.87;;
18196;SDS011;9224;52.422;13.024;2022-07-21T13:31:30;6.73;;;6.10;;
18196;SDS011;9224;52.422;13.024;2022-07-21T13:33:58;7.37;;;6.07;;
18196;SDS011;9224;52.422;13.024;2022-07-21T13:36:25;7.37;;;6.40;;
18196;SDS011;9224;52.422;13.024;2022-07-21T13:38:52;7.10;;;6.50;;
18196;SDS011;9224;52.422;13.024;2022-07-21T13:41:18;8.40;;;6.97;;
18196;SDS011;9224;52.422;13.024;2022-07-21T13:43:44;7.60;;;6.90;;
18196;SDS011;9224;52.422;13.024;2022-07-21T13:46:11;6.90;;;5.90;;
18196;SDS011;9224;52.422;13.024;2022-07-21T13:48:37;6.90;;;6.23;;
18196;SDS011;9224;52.422;13.024;2022-07-21T13:51:05;7.17;;;6.53;;
18196;SDS011;9224;52.422;13.024;2022-07-21T13:53:33;6.93;;;5.90;;
18196;SDS011;9224;52.422;13.024;2022-07-21T13:55:59;6.07;;;5.57;;
18196;SDS011;9224;52.422;13.024;2022-07-21T13:58:26;6.70;;;6.13;;
18196;SDS011;9224;52.422;13.024;2022-07-21T14:00:52;6.37;;;5.87;;
18196;SDS011;9224;52.422;13.024;2022-07-21T14:03:20;6.57;;;6.07;;
18196;SDS011;9224;52.422;13.024;2022-07-21T14:05:46;6.07;;;5.47;;
18196;SDS011;9224;52.422;13.024;2022-07-21T14:08:14;6.53;;;5.93;;
18196;SDS011;9224;52.422;13.024;2022-07-21T14:10:41;6.40;;;5.80;;
18196;SDS011;9224;52.422;13.024;2022-07-21T14:13:07;6.50;;;5.90;;
18196;SDS011;9224;52.422;13.024;2022-07-21T14:15:34;7.00;;;6.37;;
18196;SDS011;9224;52.422;13.024;2022-07-21T14:18:00;7.37;;;6.07;;
18196;SDS011;9224;52.422;13.024;2022-07-21T14:20:27;6.17;;;5.67;;
18196;SDS011;9224;52.422;13.024;2022-07-21T14:22:53;7.17;;;6.50;;
18196;SDS011;9224;52.422;13.024;2022-07-21T14:25:21;7.00;;;6.33;;
18196;SDS011;9224;52.422;13.024;2022-07-21T14:27:50;6.83;;;6.23;;
18196;SDS011;9224;52.422;13.024;2022-07-21T14:30:18;7.83;;;6.97;;
18196;SDS011;9224;52.422;13.024;2022-07-21T14:32:46;7.03;;;6.40;;
18196;SDS011;9224;52.422;13.024;2022-07-21T14:35:13;7.17;;;6.57;;
18196;SDS011;9224;52.422;13.024;2022-07-21T14:37:42;8.73;;;7.13;;
18196;SDS011;9224;52.422;13.024;2022-07-21T14:40:09;7.87;;;6.50;;
18196;SDS011;9224;52.422;13.024;2022-07-21T14:42:37;7.90;;;7.20;;
18196;SDS011;9224;52.422;13.024;2022-07-21T14:45:04;7.33;;;6.70;;
18196;SDS011;9224;52.422;13.024;2022-07-21T14:47:32;8.23;;;6.97;;
18196;SDS011;9224;52.422;13.024;2022-07-21T14:49:58;7.00;;;6.40;;
18196;SDS011;9224;52.422;13.024;2022-07-21T14:52:25;7.50;;;6.73;;
18196;SDS011;9224;52.422;13.024;2022-07-21T14:54:52;6.53;;;5.90;;
18196;SDS011;9224;52.422;13.024;2022-07-21T14:57:18;7.17;;;6.57;;
18196;SDS011;9224;52.422;13.024;2022-07-21T14:59:46;6.97;;;6.27;;
18196;SDS011;9224;52.422;13.024;2022-07-21T15:02:13;7.13;;;6.33;;
18196;SDS011;9224;52.422;13.024;2022-07-21T15:04:39;7.27;;;6.30;;